Time;durP1;ratioP1;P1;durP2;ratioP2;P2;SDS_P1;SDS_P2;PMS_P1;PMS_P2;Temp;Humidity;BMP_temperature;BMP_pressure;BME280_temperature;BME280_humidity;BME280_pressure;Samples;Min_cycle;Max_cycle;Signal;HPM_P1;HPM_P2
2022/08/17 00:00:19;;;;;;;8.45;4.18;;;20.70;99.90;;;;;;20725138;28;20084;-79
2022/08/17 00:10:20;;;;;;;8.68;4.88;;;20.70;99.90;;;;;;20746810;28;20046;-80
2022/08/17 00:20:21;;;;;;;6.80;3.95;;;20.60;99.90;;;;;;20726352;28;20047;-79
2022/08/17 00:30:22;;;;;;;9.80;5.22;;;20.60;99.90;;;;;;20743543;28;20044;-79
2022/08/17 00:40:23;;;;;;;7.63;3.65;;;20.60;99.90;;;;;;20720012;28;20049;-79
2022/08/17 00:50:24;;;;;;;6.60;3.55;;;20.70;99.90;;;;;;20721208;28;20127;-79
2022/08/17 01:00:31;;;;;;;6.13;3.35;;;20.50;99.90;;;;;;20751009;28;20041;-79
2022/08/17 01:10:41;;;;;;;7.97;3.87;;;20.40;99.90;;;;;;20761668;28;20053;-80
2022/08/17 01:20:51;;;;;;;7.07;3.80;;;20.30;99.90;;;;;;20753003;28;20951;-80
2022/08/17 01:30:54;;;;;;;5.57;3.53;;;20.20;99.90;;;;;;20739483;28;20045;-80
2022/08/17 01:41:00;;;;;;;7.75;3.90;;;20.10;99.90;;;;;;20741907;28;20050;-79
2022/08/17 01:51:04;;;;;;;6.90;3.13;;;20.10;99.90;;;;;;20734003;28;20586;-80
2022/08/17 02:01:07;;;;;;;7.47;4.28;;;20.20;99.90;;;;;;20748478;28;20041;-80
2022/08/17 02:11:13;;;;;;;9.60;4.65;;;19.90;99.90;;;;;;20732534;28;20045;-78
2022/08/17 02:21:14;;;;;;;7.15;4.45;;;19.40;99.90;;;;;;20736557;28;20092;-78
2022/08/17 02:31:15;;;;;;;8.70;4.75;;;19.20;99.90;;;;;;20736275;28;20052;-79
2022/08/17 02:41:16;;;;;;;8.27;4.47;;;19.10;99.90;;;;;;20733380;28;20080;-79
2022/08/17 02:51:18;;;;;;;7.90;4.68;;;19.00;99.90;;;;;;20738300;28;20523;-79
2022/08/17 03:01:19;;;;;;;9.73;4.82;;;18.90;99.90;;;;;;20750769;28;20057;-79
2022/08/17 03:11:20;;;;;;;7.72;4.53;;;18.80;99.90;;;;;;20747073;28;20034;-79
2022/08/17 03:21:21;;;;;;;7.03;4.25;;;18.70;99.90;;;;;;20728313;28;20039;-79
2022/08/17 03:31:22;;;;;;;11.50;6.20;;;18.70;99.90;;;;;;20729335;28;20040;-79
2022/08/17 03:41:23;;;;;;;9.48;5.28;;;18.80;99.90;;;;;;20727878;28;20037;-78
2022/08/17 04:01:46;;;;;;;12.13;6.15;;;18.90;99.90;;;;;;20752714;28;20762;-79
2022/08/17 04:11:47;;;;;;;10.82;5.03;;;19.00;99.90;;;;;;20740875;28;20041;-79
2022/08/17 04:21:48;;;;;;;9.60;5.18;;;19.00;99.90;;;;;;20741095;28;20038;-79
2022/08/17 04:31:50;;;;;;;15.27;6.03;;;19.00;99.90;;;;;;20733742;28;20049;-79
2022/08/17 04:42:07;;;;;;;9.95;4.82;;;19.00;99.90;;;;;;20727517;28;20103;-79
2022/08/17 04:52:10;;;;;;;9.43;4.88;;;19.00;99.90;;;;;;20730159;28;20081;-79
2022/08/17 05:02:13;;;;;;;12.10;5.72;;;19.00;99.90;;;;;;20736998;28;20037;-78
2022/08/17 05:12:15;;;;;;;8.80;5.90;;;18.90;99.90;;;;;;20720489;28;20123;-79
2022/08/17 05:22:16;;;;;;;7.75;4.95;;;18.90;99.90;;;;;;20732247;28;20034;-79
2022/08/17 05:32:21;;;;;;;8.45;4.05;;;18.90;99.90;;;;;;20740690;28;20064;-79
2022/08/17 05:42:22;;;;;;;6.97;4.00;;;18.90;99.90;;;;;;20707381;28;20484;-79
2022/08/17 05:52:45;;;;;;;9.15;4.18;;;19.10;99.90;;;;;;20730998;28;20126;-79
2022/08/17 06:03:21;;;;;;;9.52;4.72;;;19.10;99.90;;;;;;20725486;28;20483;-79
2022/08/17 06:13:55;;;;;;;8.05;4.85;;;19.10;99.90;;;;;;20731460;28;20551;-80
2022/08/17 06:24:05;;;;;;;8.02;4.13;;;19.20;99.90;;;;;;20738441;28;20315;-79
2022/08/17 06:34:10;;;;;;;5.55;3.78;;;19.20;99.90;;;;;;20733712;28;21484;-80
2022/08/17 06:44:20;;;;;;;7.72;3.22;;;19.20;99.90;;;;;;20742677;28;20042;-80
2022/08/17 06:54:29;;;;;;;5.72;2.42;;;19.30;99.90;;;;;;20738453;28;20049;-80
2022/08/17 07:04:33;;;;;;;4.30;1.77;;;19.40;99.90;;;;;;20726482;28;20030;-80
2022/08/17 07:14:44;;;;;;;3.08;2.00;;;19.50;99.90;;;;;;20725585;28;20691;-80
2022/08/17 07:24:59;;;;;;;4.30;1.27;;;19.80;99.90;;;;;;20742636;28;20030;-80
2022/08/17 07:35:11;;;;;;;2.63;1.48;;;20.10;99.90;;;;;;20736560;28;20937;-80
2022/08/17 07:48:18;;;;;;;2.20;1.27;;;20.30;99.90;;;;;;20754578;28;20072;-80
2022/08/17 07:55:39;;;;;;;2.22;1.48;;;20.50;99.90;;;;;;20757570;28;21723;-80
2022/08/17 08:05:56;;;;;;;4.40;2.03;;;20.50;99.90;;;;;;20740033;28;20048;-80
2022/08/17 08:16:15;;;;;;;3.63;1.50;;;20.70;99.90;;;;;;20735622;28;20037;-80
2022/08/17 08:26:41;;;;;;;3.05;1.40;;;20.80;99.90;;;;;;20735807;28;20042;-78
2022/08/17 08:37:13;;;;;;;3.80;1.75;;;20.70;99.90;;;;;;20739267;28;20042;-79
2022/08/17 08:47:24;;;;;;;4.47;1.88;;;20.80;99.90;;;;;;20731942;28;20435;-78
2022/08/17 08:57:35;;;;;;;4.10;2.20;;;20.90;99.90;;;;;;20734124;28;20037;-79
2022/08/17 09:08:02;;;;;;;6.88;3.05;;;21.00;99.90;;;;;;20750160;28;20338;-79
2022/08/17 09:18:14;;;;;;;6.30;2.88;;;21.00;99.90;;;;;;20785372;28;20692;-79
2022/08/17 09:28:22;;;;;;;4.68;2.90;;;21.00;99.90;;;;;;20750852;28;20056;-79
2022/08/17 09:38:55;;;;;;;4.78;2.60;;;21.10;99.90;;;;;;20727108;28;20095;-79
2022/08/17 09:49:10;;;;;;;5.95;2.67;;;21.20;99.90;;;;;;20725024;28;20743;-80
2022/08/17 09:59:41;;;;;;;3.33;1.95;;;21.00;99.90;;;;;;20725872;28;20534;-80
2022/08/17 10:09:59;;;;;;;3.25;1.90;;;20.80;99.90;;;;;;20742818;28;20621;-80
2022/08/17 10:20:09;;;;;;;4.57;2.10;;;20.50;99.90;;;;;;20744884;28;20120;-80
2022/08/17 10:30:20;;;;;;;2.75;1.38;;;20.30;99.90;;;;;;20746046;28;20057;-80
2022/08/17 10:40:42;;;;;;;2.95;2.00;;;20.30;99.90;;;;;;20742861;28;20041;-80
2022/08/17 10:50:56;;;;;;;3.50;1.80;;;20.50;99.90;;;;;;20729760;28;21548;-80
2022/08/17 11:00:58;;;;;;;2.65;1.10;;;20.70;99.90;;;;;;20750719;28;20052;-80
2022/08/17 11:11:36;;;;;;;4.88;2.13;;;20.70;99.90;;;;;;20745412;28;20041;-80
2022/08/17 11:22:00;;;;;;;;;;;20.70;99.90;;;;;;20746214;28;20675;-78
2022/08/17 11:32:26;;;;;;;4.30;2.08;;;20.70;99.90;;;;;;20744760;28;20568;-78
2022/08/17 11:43:07;;;;;;;4.03;2.38;;;20.70;99.90;;;;;;20760681;28;20508;-78
2022/08/17 11:53:36;;;;;;;4.82;2.63;;;20.70;99.90;;;;;;20745106;28;21721;-81
2022/08/17 12:03:36;;;;;;;4.55;2.97;;;20.90;99.90;;;;;;20762168;28;20334;-81
2022/08/17 12:13:45;;;;;;;7.22;2.80;;;21.00;99.90;;;;;;20743368;28;20065;-81
2022/08/17 12:24:02;;;;;;;4.63;2.65;;;20.80;99.90;;;;;;20745551;28;20033;-81
2022/08/17 12:34:04;;;;;;;11.55;3.05;;;20.50;99.90;;;;;;20741241;28;20248;-80
2022/08/17 12:44:28;;;;;;;8.40;4.57;;;20.10;99.90;;;;;;20726576;28;20489;-80
2022/08/17 12:54:53;;;;;;;6.55;3.97;;;20.00;99.90;;;;;;20747409;28;20452;-81
2022/08/17 13:04:57;;;;;;;5.13;3.53;;;19.80;99.90;;;;;;20738319;28;21066;-81
2022/08/17 13:14:59;;;;;;;10.02;5.30;;;19.60;99.90;;;;;;20753456;28;20446;-81
2022/08/17 13:25:05;;;;;;;8.25;3.80;;;19.70;99.90;;;;;;20736785;28;20033;-81
2022/08/17 13:35:29;;;;;;;7.63;3.30;;;19.70;99.90;;;;;;20757016;28;20041;-81
2022/08/17 13:45:30;;;;;;;4.97;3.08;;;19.70;99.90;;;;;;20744707;28;20061;-81
2022/08/17 13:55:31;;;;;;;5.32;3.03;;;19.80;99.90;;;;;;20744120;28;20045;-82
2022/08/17 14:05:32;;;;;;;6.78;3.75;;;20.10;99.90;;;;;;20758935;28;20042;-81
2022/08/17 14:15:33;;;;;;;3.63;2.38;;;20.10;99.90;;;;;;20733428;28;20029;-81
2022/08/17 14:25:36;;;;;;;5.05;2.90;;;20.10;99.90;;;;;;20739928;28;20062;-82
2022/08/17 14:35:37;;;;;;;6.75;3.72;;;20.20;99.90;;;;;;20762286;28;20037;-81
2022/08/17 14:45:38;;;;;;;5.60;3.47;;;20.30;99.90;;;;;;20755082;28;20041;-81
2022/08/17 14:55:39;;;;;;;5.05;2.88;;;20.40;99.90;;;;;;20738309;28;20041;-82
2022/08/17 15:05:42;;;;;;;5.03;2.78;;;20.50;99.90;;;;;;20743493;28;20045;-81
2022/08/17 15:15:44;;;;;;;4.97;2.67;;;20.50;99.90;;;;;;20746953;28;20045;-81
2022/08/17 15:25:47;;;;;;;5.90;2.97;;;20.50;99.90;;;;;;20744570;28;20444;-82
2022/08/17 15:35:50;;;;;;;4.60;2.58;;;20.50;99.90;;;;;;20742282;28;20037;-82
2022/08/17 15:46:23;;;;;;;4.47;2.53;;;20.40;99.90;;;;;;20739296;28;20081;-81
2022/08/17 15:56:26;;;;;;;4.30;2.42;;;20.40;99.90;;;;;;20754389;28;20959;-80
2022/08/17 16:06:28;;;;;;;7.65;2.95;;;20.50;99.90;;;;;;20749648;28;21027;-80
2022/08/17 16:16:29;;;;;;;4.15;2.40;;;20.70;99.90;;;;;;20767534;28;20038;-80
2022/08/17 16:26:32;;;;;;;5.80;3.03;;;20.80;99.90;;;;;;20750044;28;20042;-80
2022/08/17 16:36:34;;;;;;;6.72;2.83;;;20.80;99.90;;;;;;20747307;28;20096;-80
2022/08/17 16:46:38;;;;;;;5.10;3.05;;;20.70;99.90;;;;;;20746608;28;20038;-80
2022/08/17 16:56:39;;;;;;;6.75;3.33;;;20.70;99.90;;;;;;20733483;28;20030;-80
2022/08/17 17:06:59;;;;;;;4.18;2.38;;;20.70;99.90;;;;;;20746761;28;20041;-80
2022/08/17 17:17:12;;;;;;;3.95;2.20;;;20.70;99.90;;;;;;20732377;28;20547;-80
2022/08/17 17:27:52;;;;;;;4.30;2.60;;;20.70;99.90;;;;;;20747825;28;20046;-80
2022/08/17 17:37:56;;;;;;;3.78;2.40;;;20.70;99.90;;;;;;20758827;28;21731;-81
2022/08/17 17:47:57;;;;;;;6.85;2.85;;;20.70;99.90;;;;;;20760839;28;20045;-80
2022/08/17 17:58:30;;;;;;;5.93;2.80;;;20.70;99.90;;;;;;20756712;28;20886;-83
2022/08/17 18:08:48;;;;;;;5.20;2.50;;;20.70;99.90;;;;;;20756250;28;20682;-79
2022/08/17 18:18:51;;;;;;;4.53;2.77;;;20.60;99.90;;;;;;20769438;28;20992;-80
2022/08/17 18:28:52;;;;;;;5.25;3.20;;;20.40;99.90;;;;;;20759063;28;20041;-81
2022/08/17 18:39:15;;;;;;;5.47;2.53;;;20.30;99.90;;;;;;20777454;28;20041;-82
2022/08/17 18:49:26;;;;;;;4.53;2.25;;;20.30;99.90;;;;;;20770036;28;20626;-81
2022/08/17 18:59:45;;;;;;;4.53;2.10;;;19.60;99.90;;;;;;20764842;28;20037;-80
2022/08/17 19:09:57;;;;;;;4.53;2.63;;;19.20;99.90;;;;;;20761813;28;20925;-80
2022/08/17 19:20:17;;;;;;;5.90;3.00;;;19.10;99.90;;;;;;20762799;28;20034;-80
2022/08/17 19:30:19;;;;;;;;;;;19.00;99.90;;;;;;20753463;28;20050;-80
2022/08/17 19:40:30;;;;;;;5.32;3.05;;;18.90;99.90;;;;;;20772858;28;25008;-80
2022/08/17 19:50:53;;;;;;;4.93;2.55;;;19.00;99.90;;;;;;20780865;28;20538;-79
2022/08/17 20:00:54;;;;;;;3.97;2.03;;;19.00;99.90;;;;;;20765531;28;20493;-79
2022/08/17 20:11:20;;;;;;;6.68;4.05;;;19.00;99.90;;;;;;20766004;28;22866;-79
2022/08/17 20:21:33;;;;;;;2.72;1.83;;;19.10;99.90;;;;;;20760637;28;20361;-80
2022/08/17 20:31:39;;;;;;;5.35;2.72;;;19.00;99.90;;;;;;20788135;28;20725;-80
2022/08/17 20:42:08;;;;;;;5.85;3.03;;;18.90;99.90;;;;;;20787133;28;20563;-80
2022/08/17 20:52:12;;;;;;;6.75;3.50;;;18.90;99.90;;;;;;20776165;28;20108;-81
2022/08/17 21:02:22;;;;;;;9.70;4.68;;;18.70;99.90;;;;;;20759806;28;20409;-80
2022/08/17 21:12:46;;;;;;;5.70;3.22;;;18.50;99.90;;;;;;20768933;28;20077;-80
2022/08/17 21:23:05;;;;;;;4.20;2.85;;;18.50;99.90;;;;;;20771865;28;20945;-81
2022/08/17 21:33:30;;;;;;;4.38;3.15;;;18.50;99.90;;;;;;20782622;28;21583;-80
2022/08/17 21:43:36;;;;;;;4.28;2.83;;;18.50;99.90;;;;;;20775402;28;20408;-80
2022/08/17 21:53:48;;;;;;;6.50;3.22;;;18.50;99.90;;;;;;20769756;28;20935;-81
2022/08/17 22:04:07;;;;;;;5.90;3.65;;;18.40;99.90;;;;;;20764003;28;20041;-81
2022/08/17 22:14:20;;;;;;;6.88;2.80;;;18.40;99.90;;;;;;20763011;28;20705;-81
2022/08/17 22:24:27;;;;;;;5.20;2.90;;;18.30;99.90;;;;;;20780582;28;20034;-81
2022/08/17 22:34:28;;;;;;;7.17;3.67;;;18.30;99.90;;;;;;20776077;28;20034;-82
2022/08/17 22:44:32;;;;;;;15.02;3.15;;;18.40;99.90;;;;;;20771863;28;20042;-81
2022/08/17 23:05:15;;;;;;;5.72;3.00;;;18.30;99.90;;;;;;20764238;28;20532;-81
2022/08/17 23:15:17;;;;;;;3.85;2.17;;;18.30;99.90;;;;;;20797480;28;20609;-80
2022/08/17 23:25:29;;;;;;;4.88;3.05;;;18.40;99.90;;;;;;20800980;28;20034;-81
2022/08/17 23:35:31;;;;;;;4.53;2.15;;;18.40;99.90;;;;;;20779666;28;20033;-81
2022/08/17 23:45:32;;;;;;;4.07;2.15;;;18.40;99.90;;;;;;20799545;28;20083;-81
2022/08/17 23:55:36;;;;;;;3.08;1.73;;;18.40;99.90;;;;;;20779790;28;20037;-80
